sensor_id;sensor_type;location;lat;lon;timestamp;P1;durP1;ratioP1;P2;durP2;ratioP2
75922;SDS011;64602;47.542;19.090;2023-04-20T06:06:36;24.53;;;12.73;;
75922;SDS011;64602;47.542;19.090;2023-04-20T06:11:38;14.67;;;8.20;;
75922;SDS011;64602;47.542;19.090;2023-04-20T06:16:40;15.38;;;8.20;;
75922;SDS011;64602;47.542;19.090;2023-04-20T06:21:42;11.88;;;7.22;;
75922;SDS011;64602;47.542;19.090;2023-04-20T06:26:45;14.00;;;7.67;;
75922;SDS011;64602;47.542;19.090;2023-04-20T06:31:47;9.55;;;6.50;;
75922;SDS011;64602;47.542;19.090;2023-04-20T06:36:49;12.25;;;7.20;;
75922;SDS011;64602;47.542;19.090;2023-04-20T06:41:51;9.80;;;6.93;;
75922;SDS011;64602;47.542;19.090;2023-04-20T06:46:53;10.68;;;6.50;;
75922;SDS011;64602;47.542;19.090;2023-04-20T06:51:55;9.02;;;6.32;;
75922;SDS011;64602;47.542;19.090;2023-04-20T06:56:57;11.23;;;6.57;;
75922;SDS011;64602;47.542;19.090;2023-04-20T07:02:00;9.47;;;6.13;;
75922;SDS011;64602;47.542;19.090;2023-04-20T07:07:02;10.68;;;6.60;;
75922;SDS011;64602;47.542;19.090;2023-04-20T07:12:04;10.80;;;6.47;;
75922;SDS011;64602;47.542;19.090;2023-04-20T07:17:07;10.80;;;6.53;;
75922;SDS011;64602;47.542;19.090;2023-04-20T07:22:09;8.98;;;6.07;;
75922;SDS011;64602;47.542;19.090;2023-04-20T07:27:11;11.12;;;5.75;;
75922;SDS011;64602;47.542;19.090;2023-04-20T07:32:13;9.37;;;5.90;;
75922;SDS011;64602;47.542;19.090;2023-04-20T07:37:15;10.20;;;5.62;;
75922;SDS011;64602;47.542;19.090;2023-04-20T07:42:18;8.10;;;5.32;;
75922;SDS011;64602;47.542;19.090;2023-04-20T07:47:21;8.03;;;5.60;;
75922;SDS011;64602;47.542;19.090;2023-04-20T07:52:24;9.33;;;5.77;;
75922;SDS011;64602;47.542;19.090;2023-04-20T07:57:27;7.78;;;5.40;;
75922;SDS011;64602;47.542;19.090;2023-04-20T08:02:30;8.50;;;5.15;;
75922;SDS011;64602;47.542;19.090;2023-04-20T08:07:33;7.17;;;4.90;;
75922;SDS011;64602;47.542;19.090;2023-04-20T08:12:35;7.62;;;5.15;;
75922;SDS011;64602;47.542;19.090;2023-04-20T08:17:37;8.10;;;5.15;;
75922;SDS011;64602;47.542;19.090;2023-04-20T08:22:40;6.73;;;4.80;;
75922;SDS011;64602;47.542;19.090;2023-04-20T08:27:42;11.02;;;5.20;;
75922;SDS011;64602;47.542;19.090;2023-04-20T08:32:44;8.10;;;4.82;;
75922;SDS011;64602;47.542;19.090;2023-04-20T08:37:47;7.23;;;5.10;;
75922;SDS011;64602;47.542;19.090;2023-04-20T08:42:49;8.80;;;5.27;;
75922;SDS011;64602;47.542;19.090;2023-04-20T08:47:51;9.07;;;5.05;;
75922;SDS011;64602;47.542;19.090;2023-04-20T08:52:54;10.05;;;4.90;;
75922;SDS011;64602;47.542;19.090;2023-04-20T08:57:57;8.17;;;5.40;;
75922;SDS011;64602;47.542;19.090;2023-04-20T09:02:59;8.93;;;4.97;;
75922;SDS011;64602;47.542;19.090;2023-04-20T09:08:03;7.87;;;4.50;;
75922;SDS011;64602;47.542;19.090;2023-04-20T09:13:05;5.97;;;3.70;;
75922;SDS011;64602;47.542;19.090;2023-04-20T09:18:11;6.07;;;4.37;;
75922;SDS011;64602;47.542;19.090;2023-04-20T09:23:16;6.05;;;3.92;;
75922;SDS011;64602;47.542;19.090;2023-04-20T09:28:19;7.50;;;4.20;;
75922;SDS011;64602;47.542;19.090;2023-04-20T09:33:26;6.97;;;3.80;;
75922;SDS011;64602;47.542;19.090;2023-04-20T09:38:29;6.20;;;3.75;;
75922;SDS011;64602;47.542;19.090;2023-04-20T09:43:31;5.50;;;3.92;;
75922;SDS011;64602;47.542;19.090;2023-04-20T09:48:36;5.63;;;3.50;;
75922;SDS011;64602;47.542;19.090;2023-04-20T09:53:38;6.57;;;3.90;;
75922;SDS011;64602;47.542;19.090;2023-04-20T09:58:40;5.45;;;3.60;;
75922;SDS011;64602;47.542;19.090;2023-04-20T10:03:46;5.10;;;3.30;;
75922;SDS011;64602;47.542;19.090;2023-04-20T10:08:50;6.70;;;3.40;;
75922;SDS011;64602;47.542;19.090;2023-04-20T10:13:54;4.97;;;3.20;;
75922;SDS011;64602;47.542;19.090;2023-04-20T10:19:01;5.40;;;3.40;;
75922;SDS011;64602;47.542;19.090;2023-04-20T10:24:04;7.30;;;4.17;;
75922;SDS011;64602;47.542;19.090;2023-04-20T10:29:07;8.43;;;4.10;;
75922;SDS011;64602;47.542;19.090;2023-04-20T10:34:09;6.43;;;3.42;;
75922;SDS011;64602;47.542;19.090;2023-04-20T10:39:12;5.33;;;3.40;;
75922;SDS011;64602;47.542;19.090;2023-04-20T10:44:20;5.28;;;3.90;;
75922;SDS011;64602;47.542;19.090;2023-04-20T10:49:26;7.03;;;4.22;;
75922;SDS011;64602;47.542;19.090;2023-04-20T10:54:35;4.93;;;2.93;;
75922;SDS011;64602;47.542;19.090;2023-04-20T10:59:38;5.90;;;3.15;;
75922;SDS011;64602;47.542;19.090;2023-04-20T11:04:42;4.97;;;2.62;;
75922;SDS011;64602;47.542;19.090;2023-04-20T11:09:51;5.20;;;3.07;;
75922;SDS011;64602;47.542;19.090;2023-04-20T11:14:55;8.77;;;3.23;;
75922;SDS011;64602;47.542;19.090;2023-04-20T11:20:13;5.15;;;2.87;;
75922;SDS011;64602;47.542;19.090;2023-04-20T11:25:17;4.10;;;2.90;;
75922;SDS011;64602;47.542;19.090;2023-04-20T11:30:19;5.83;;;3.20;;
75922;SDS011;64602;47.542;19.090;2023-04-20T11:35:22;5.70;;;2.95;;
75922;SDS011;64602;47.542;19.090;2023-04-20T11:40:27;3.92;;;2.78;;
75922;SDS011;64602;47.542;19.090;2023-04-20T11:45:30;8.70;;;4.07;;
75922;SDS011;64602;47.542;19.090;2023-04-20T11:50:37;4.10;;;2.53;;
75922;SDS011;64602;47.542;19.090;2023-04-20T11:55:43;4.53;;;3.10;;
75922;SDS011;64602;47.542;19.090;2023-04-20T12:00:45;4.70;;;2.60;;
75922;SDS011;64602;47.542;19.090;2023-04-20T12:05:47;4.93;;;2.63;;
75922;SDS011;64602;47.542;19.090;2023-04-20T12:10:49;7.37;;;3.42;;
75922;SDS011;64602;47.542;19.090;2023-04-20T12:15:51;3.90;;;2.40;;
75922;SDS011;64602;47.542;19.090;2023-04-20T12:20:53;4.20;;;3.03;;
75922;SDS011;64602;47.542;19.090;2023-04-20T12:25:55;4.45;;;2.47;;
75922;SDS011;64602;47.542;19.090;2023-04-20T12:30:58;4.60;;;2.50;;
75922;SDS011;64602;47.542;19.090;2023-04-20T12:36:00;3.77;;;2.30;;
75922;SDS011;64602;47.542;19.090;2023-04-20T12:41:02;3.62;;;1.70;;
75922;SDS011;64602;47.542;19.090;2023-04-20T12:46:05;7.90;;;2.40;;
75922;SDS011;64602;47.542;19.090;2023-04-20T12:51:07;8.87;;;2.50;;
75922;SDS011;64602;47.542;19.090;2023-04-20T12:56:09;4.30;;;2.50;;
75922;SDS011;64602;47.542;19.090;2023-04-20T13:01:11;5.95;;;3.05;;
75922;SDS011;64602;47.542;19.090;2023-04-20T13:06:14;4.87;;;2.47;;
75922;SDS011;64602;47.542;19.090;2023-04-20T13:11:16;4.23;;;2.50;;
75922;SDS011;64602;47.542;19.090;2023-04-20T13:16:18;4.10;;;2.60;;
75922;SDS011;64602;47.542;19.090;2023-04-20T13:21:21;5.12;;;2.60;;
75922;SDS011;64602;47.542;19.090;2023-04-20T13:26:23;3.23;;;2.00;;
75922;SDS011;64602;47.542;19.090;2023-04-20T13:31:25;5.90;;;2.28;;
75922;SDS011;64602;47.542;19.090;2023-04-20T13:36:27;6.78;;;2.80;;
75922;SDS011;64602;47.542;19.090;2023-04-20T13:41:30;5.17;;;2.90;;
75922;SDS011;64602;47.542;19.090;2023-04-20T13:46:32;6.87;;;2.50;;
75922;SDS011;64602;47.542;19.090;2023-04-20T13:51:35;3.47;;;1.92;;
75922;SDS011;64602;47.542;19.090;2023-04-20T13:56:37;4.05;;;1.90;;
75922;SDS011;64602;47.542;19.090;2023-04-20T14:01:39;3.70;;;1.90;;
75922;SDS011;64602;47.542;19.090;2023-04-20T14:06:41;4.43;;;1.90;;
75922;SDS011;64602;47.542;19.090;2023-04-20T14:11:45;3.37;;;1.85;;
75922;SDS011;64602;47.542;19.090;2023-04-20T14:16:49;4.37;;;2.23;;
75922;SDS011;64602;47.542;19.090;2023-04-20T14:21:52;3.40;;;1.70;;
75922;SDS011;64602;47.542;19.090;2023-04-20T14:26:54;3.60;;;1.80;;
75922;SDS011;64602;47.542;19.090;2023-04-20T14:31:57;4.83;;;1.70;;
75922;SDS011;64602;47.542;19.090;2023-04-20T14:36:59;5.03;;;1.87;;
75922;SDS011;64602;47.542;19.090;2023-04-20T14:42:01;4.07;;;1.90;;
75922;SDS011;64602;47.542;19.090;2023-04-20T14:47:04;3.37;;;1.70;;
75922;SDS011;64602;47.542;19.090;2023-04-20T14:52:06;4.77;;;1.80;;
75922;SDS011;64602;47.542;19.090;2023-04-20T14:57:08;5.30;;;2.00;;
75922;SDS011;64602;47.542;19.090;2023-04-20T15:02:10;3.80;;;1.80;;
75922;SDS011;64602;47.542;19.090;2023-04-20T15:07:12;3.13;;;1.83;;
75922;SDS011;64602;47.542;19.090;2023-04-20T15:12:15;2.62;;;1.90;;
75922;SDS011;64602;47.542;19.090;2023-04-20T15:17:17;4.12;;;1.60;;
75922;SDS011;64602;47.542;19.090;2023-04-20T15:22:19;3.30;;;1.90;;
75922;SDS011;64602;47.542;19.090;2023-04-20T15:27:21;4.53;;;1.87;;
75922;SDS011;64602;47.542;19.090;2023-04-20T15:32:23;3.00;;;1.62;;
75922;SDS011;64602;47.542;19.090;2023-04-20T15:37:26;4.45;;;1.60;;
75922;SDS011;64602;47.542;19.090;2023-04-20T15:42:29;2.33;;;1.40;;
75922;SDS011;64602;47.542;19.090;2023-04-20T15:47:31;5.95;;;1.80;;
75922;SDS011;64602;47.542;19.090;2023-04-20T15:52:33;4.18;;;1.85;;
75922;SDS011;64602;47.542;19.090;2023-04-20T15:57:36;12.57;;;2.13;;
75922;SDS011;64602;47.542;19.090;2023-04-20T16:02:38;9.68;;;2.15;;
75922;SDS011;64602;47.542;19.090;2023-04-20T16:07:41;4.65;;;1.80;;
75922;SDS011;64602;47.542;19.090;2023-04-20T16:12:43;4.47;;;1.80;;
75922;SDS011;64602;47.542;19.090;2023-04-20T16:17:45;5.90;;;1.87;;
75922;SDS011;64602;47.542;19.090;2023-04-20T16:22:47;6.00;;;2.05;;
75922;SDS011;64602;47.542;19.090;2023-04-20T16:27:49;6.68;;;3.17;;
75922;SDS011;64602;47.542;19.090;2023-04-20T16:32:52;3.73;;;1.70;;
75922;SDS011;64602;47.542;19.090;2023-04-20T16:37:54;5.35;;;1.80;;
75922;SDS011;64602;47.542;19.090;2023-04-20T16:42:57;4.40;;;2.03;;
75922;SDS011;64602;47.542;19.090;2023-04-20T16:47:59;6.00;;;2.10;;
75922;SDS011;64602;47.542;19.090;2023-04-20T16:53:02;3.22;;;1.77;;
75922;SDS011;64602;47.542;19.090;2023-04-20T16:58:04;6.57;;;2.22;;
75922;SDS011;64602;47.542;19.090;2023-04-20T17:03:07;5.50;;;3.30;;
75922;SDS011;64602;47.542;19.090;2023-04-20T17:08:11;3.50;;;2.00;;
75922;SDS011;64602;47.542;19.090;2023-04-20T17:13:13;7.20;;;2.62;;
75922;SDS011;64602;47.542;19.090;2023-04-20T17:18:16;5.78;;;2.72;;
75922;SDS011;64602;47.542;19.090;2023-04-20T17:23:18;5.13;;;2.20;;
75922;SDS011;64602;47.542;19.090;2023-04-20T17:28:20;6.72;;;2.45;;
75922;SDS011;64602;47.542;19.090;2023-04-20T17:33:22;6.10;;;3.10;;
75922;SDS011;64602;47.542;19.090;2023-04-20T17:38:24;5.17;;;2.20;;
75922;SDS011;64602;47.542;19.090;2023-04-20T17:43:27;3.50;;;1.70;;
75922;SDS011;64602;47.542;19.090;2023-04-20T17:48:29;5.35;;;2.10;;
75922;SDS011;64602;47.542;19.090;2023-04-20T17:53:31;5.00;;;2.60;;
75922;SDS011;64602;47.542;19.090;2023-04-20T17:58:33;3.93;;;2.10;;
75922;SDS011;64602;47.542;19.090;2023-04-20T18:03:35;5.62;;;2.30;;
75922;SDS011;64602;47.542;19.090;2023-04-20T18:08:37;4.78;;;2.42;;
75922;SDS011;64602;47.542;19.090;2023-04-20T18:13:40;5.60;;;2.20;;
75922;SDS011;64602;47.542;19.090;2023-04-20T18:18:42;6.05;;;2.78;;
75922;SDS011;64602;47.542;19.090;2023-04-20T18:23:44;5.18;;;2.87;;
75922;SDS011;64602;47.542;19.090;2023-04-20T18:28:47;5.23;;;2.40;;
75922;SDS011;64602;47.542;19.090;2023-04-20T18:33:49;4.82;;;2.40;;
75922;SDS011;64602;47.542;19.090;2023-04-20T18:38:51;7.53;;;3.45;;
75922;SDS011;64602;47.542;19.090;2023-04-20T18:43:55;7.83;;;3.73;;
75922;SDS011;64602;47.542;19.090;2023-04-20T18:48:57;5.77;;;3.00;;
75922;SDS011;64602;47.542;19.090;2023-04-20T18:53:59;4.80;;;2.58;;
75922;SDS011;64602;47.542;19.090;2023-04-20T18:59:02;6.60;;;3.15;;
75922;SDS011;64602;47.542;19.090;2023-04-20T19:04:05;6.33;;;2.20;;
75922;SDS011;64602;47.542;19.090;2023-04-20T19:09:09;6.72;;;2.92;;
75922;SDS011;64602;47.542;19.090;2023-04-20T19:14:11;5.40;;;2.55;;
75922;SDS011;64602;47.542;19.090;2023-04-20T19:19:13;7.03;;;2.67;;
75922;SDS011;64602;47.542;19.090;2023-04-20T19:24:15;8.23;;;2.80;;
75922;SDS011;64602;47.542;19.090;2023-04-20T19:29:18;7.78;;;3.08;;
